sensor_id;sensor_type;location;lat;lon;timestamp;pressure;altitude;pressure_sealevel;temperature;humidity
57668;BME280;43499;52.366;12.912;2023-07-13T00:00:11;100914.53;;;18.24;63.17
57668;BME280;43499;52.366;12.912;2023-07-13T00:01:16;100929.00;;;18.29;63.49
57668;BME280;43499;52.366;12.912;2023-07-13T00:02:18;100929.84;;;18.28;63.69
57668;BME280;43499;52.366;12.912;2023-07-13T00:03:19;100939.91;;;18.33;63.83
57668;BME280;43499;52.366;12.912;2023-07-13T00:04:22;100933.91;;;18.38;63.58
57668;BME280;43499;52.366;12.912;2023-07-13T00:05:25;100911.03;;;18.25;63.47
57668;BME280;43499;52.366;12.912;2023-07-13T00:06:28;100923.69;;;18.29;63.78
57668;BME280;43499;52.366;12.912;2023-07-13T00:07:34;100916.38;;;18.25;63.85
57668;BME280;43499;52.366;12.912;2023-07-13T00:08:35;100921.84;;;18.28;63.90
57668;BME280;43499;52.366;12.912;2023-07-13T00:09:36;100921.53;;;18.22;64.07
57668;BME280;43499;52.366;12.912;2023-07-13T00:10:41;100923.44;;;18.24;64.55
57668;BME280;43499;52.366;12.912;2023-07-13T00:11:43;100920.13;;;18.28;63.58
57668;BME280;43499;52.366;12.912;2023-07-13T00:12:45;100937.22;;;18.33;64.04
57668;BME280;43499;52.366;12.912;2023-07-13T00:13:46;100935.50;;;18.34;63.90
57668;BME280;43499;52.366;12.912;2023-07-13T00:14:47;100940.13;;;18.38;63.77
57668;BME280;43499;52.366;12.912;2023-07-13T00:15:48;100936.41;;;18.34;63.89
57668;BME280;43499;52.366;12.912;2023-07-13T00:16:49;100946.22;;;18.35;63.85
57668;BME280;43499;52.366;12.912;2023-07-13T00:17:52;100942.25;;;18.27;64.01
57668;BME280;43499;52.366;12.912;2023-07-13T00:18:53;100949.66;;;18.33;64.20
57668;BME280;43499;52.366;12.912;2023-07-13T00:19:56;100956.03;;;18.37;64.58
57668;BME280;43499;52.366;12.912;2023-07-13T00:20:57;100956.03;;;18.37;64.22
57668;BME280;43499;52.366;12.912;2023-07-13T00:22:05;100960.00;;;18.45;63.94
57668;BME280;43499;52.366;12.912;2023-07-13T00:23:07;100960.00;;;18.45;63.82
57668;BME280;43499;52.366;12.912;2023-07-13T00:24:11;100962.00;;;18.49;63.83
57668;BME280;43499;52.366;12.912;2023-07-13T00:25:14;100941.06;;;18.39;63.73
57668;BME280;43499;52.366;12.912;2023-07-13T00:26:15;100966.75;;;18.55;63.19
57668;BME280;43499;52.366;12.912;2023-07-13T00:27:18;100965.81;;;18.54;63.43
57668;BME280;43499;52.366;12.912;2023-07-13T00:28:21;100946.47;;;18.40;63.41
57668;BME280;43499;52.366;12.912;2023-07-13T00:29:22;100961.00;;;18.47;63.83
57668;BME280;43499;52.366;12.912;2023-07-13T00:30:23;100932.75;;;18.32;63.60
57668;BME280;43499;52.366;12.912;2023-07-13T00:31:25;100945.63;;;18.41;63.90
57668;BME280;43499;52.366;12.912;2023-07-13T00:32:27;100947.34;;;18.41;63.69
57668;BME280;43499;52.366;12.912;2023-07-13T00:33:29;100955.22;;;18.38;63.78
57668;BME280;43499;52.366;12.912;2023-07-13T00:34:31;100958.28;;;18.29;64.43
57668;BME280;43499;52.366;12.912;2023-07-13T00:35:32;100942.66;;;18.18;64.90
57668;BME280;43499;52.366;12.912;2023-07-13T00:36:34;100938.75;;;18.12;64.91
57668;BME280;43499;52.366;12.912;2023-07-13T00:37:35;100947.56;;;18.11;64.55
57668;BME280;43499;52.366;12.912;2023-07-13T00:38:37;100938.50;;;18.07;64.65
57668;BME280;43499;52.366;12.912;2023-07-13T00:39:38;100939.75;;;18.14;64.56
57668;BME280;43499;52.366;12.912;2023-07-13T00:40:40;100940.19;;;18.22;63.96
57668;BME280;43499;52.366;12.912;2023-07-13T00:41:41;100928.34;;;18.16;64.00
57668;BME280;43499;52.366;12.912;2023-07-13T00:42:42;100947.47;;;18.26;64.14
57668;BME280;43499;52.366;12.912;2023-07-13T00:43:43;100941.25;;;18.25;63.91
57668;BME280;43499;52.366;12.912;2023-07-13T00:46:18;100945.50;;;18.22;63.88
57668;BME280;43499;52.366;12.912;2023-07-13T00:47:19;100935.75;;;18.22;64.00
57668;BME280;43499;52.366;12.912;2023-07-13T00:48:24;100939.59;;;18.27;63.54
57668;BME280;43499;52.366;12.912;2023-07-13T00:49:29;100940.41;;;18.26;63.81
57668;BME280;43499;52.366;12.912;2023-07-13T00:50:31;100939.25;;;18.21;63.77
57668;BME280;43499;52.366;12.912;2023-07-13T00:51:37;100941.59;;;18.15;63.96
57668;BME280;43499;52.366;12.912;2023-07-13T00:52:44;100951.41;;;18.16;64.10
57668;BME280;43499;52.366;12.912;2023-07-13T00:53:47;100939.91;;;18.00;64.50
57668;BME280;43499;52.366;12.912;2023-07-13T00:54:48;100950.50;;;17.99;64.62
57668;BME280;43499;52.366;12.912;2023-07-13T00:55:50;100953.75;;;17.95;64.69
57668;BME280;43499;52.366;12.912;2023-07-13T00:56:53;100964.06;;;17.88;65.32
57668;BME280;43499;52.366;12.912;2023-07-13T00:57:56;100942.19;;;17.78;65.06
57668;BME280;43499;52.366;12.912;2023-07-13T00:58:57;100960.16;;;17.82;65.01
57668;BME280;43499;52.366;12.912;2023-07-13T01:00:02;100946.63;;;17.77;65.51
57668;BME280;43499;52.366;12.912;2023-07-13T01:01:06;100959.06;;;17.78;65.60
57668;BME280;43499;52.366;12.912;2023-07-13T01:02:07;100956.50;;;17.80;65.32
57668;BME280;43499;52.366;12.912;2023-07-13T01:03:08;100953.59;;;17.75;65.47
57668;BME280;43499;52.366;12.912;2023-07-13T01:04:09;100944.56;;;17.56;65.86
57668;BME280;43499;52.366;12.912;2023-07-13T01:05:12;100959.22;;;17.65;66.09
57668;BME280;43499;52.366;12.912;2023-07-13T01:06:14;100953.06;;;17.66;65.46
57668;BME280;43499;52.366;12.912;2023-07-13T01:07:18;100944.50;;;17.55;65.93
57668;BME280;43499;52.366;12.912;2023-07-13T01:08:21;100954.56;;;17.61;66.58
57668;BME280;43499;52.366;12.912;2023-07-13T01:09:23;100958.94;;;17.60;66.14
57668;BME280;43499;52.366;12.912;2023-07-13T01:10:25;100956.28;;;17.60;65.96
57668;BME280;43499;52.366;12.912;2023-07-13T01:11:27;100956.72;;;17.68;66.12
57668;BME280;43499;52.366;12.912;2023-07-13T01:12:28;100953.06;;;17.66;65.63
57668;BME280;43499;52.366;12.912;2023-07-13T01:13:30;100946.13;;;17.53;66.36
57668;BME280;43499;52.366;12.912;2023-07-13T01:14:32;100966.56;;;17.54;66.60
57668;BME280;43499;52.366;12.912;2023-07-13T01:15:40;100964.66;;;17.51;66.44
57668;BME280;43499;52.366;12.912;2023-07-13T01:16:42;100960.19;;;17.50;66.82
57668;BME280;43499;52.366;12.912;2023-07-13T01:17:44;100955.25;;;17.41;66.88
57668;BME280;43499;52.366;12.912;2023-07-13T01:18:45;100964.97;;;17.41;66.88
57668;BME280;43499;52.366;12.912;2023-07-13T01:19:48;100957.16;;;17.44;66.44
57668;BME280;43499;52.366;12.912;2023-07-13T01:20:56;100959.91;;;17.46;66.79
57668;BME280;43499;52.366;12.912;2023-07-13T01:21:58;100962.72;;;17.49;66.75
57668;BME280;43499;52.366;12.912;2023-07-13T01:22:59;100955.25;;;17.41;67.06
57668;BME280;43499;52.366;12.912;2023-07-13T01:24:00;100961.50;;;17.42;66.49
57668;BME280;43499;52.366;12.912;2023-07-13T01:25:03;100938.78;;;17.32;66.71
57668;BME280;43499;52.366;12.912;2023-07-13T01:26:04;100956.19;;;17.42;66.65
57668;BME280;43499;52.366;12.912;2023-07-13T01:27:06;100965.38;;;17.49;66.40
57668;BME280;43499;52.366;12.912;2023-07-13T01:28:08;100961.34;;;17.55;66.73
57668;BME280;43499;52.366;12.912;2023-07-13T01:29:09;100957.78;;;17.55;66.00
57668;BME280;43499;52.366;12.912;2023-07-13T01:30:13;100958.69;;;17.55;66.59
57668;BME280;43499;52.366;12.912;2023-07-13T01:31:14;100955.75;;;17.51;66.43
57668;BME280;43499;52.366;12.912;2023-07-13T01:32:19;100941.63;;;17.35;66.74
57668;BME280;43499;52.366;12.912;2023-07-13T01:33:25;100964.88;;;17.39;66.81
57668;BME280;43499;52.366;12.912;2023-07-13T01:34:27;100969.34;;;17.40;67.19
57668;BME280;43499;52.366;12.912;2023-07-13T01:35:28;100966.81;;;17.42;67.27
57668;BME280;43499;52.366;12.912;2023-07-13T01:36:29;100953.16;;;17.36;67.30
57668;BME280;43499;52.366;12.912;2023-07-13T01:37:30;100979.69;;;17.51;66.88
57668;BME280;43499;52.366;12.912;2023-07-13T01:38:35;100974.09;;;17.46;67.38
57668;BME280;43499;52.366;12.912;2023-07-13T01:39:36;100983.47;;;17.39;67.26
57668;BME280;43499;52.366;12.912;2023-07-13T01:40:39;100977.81;;;17.33;67.15
57668;BME280;43499;52.366;12.912;2023-07-13T01:41:40;100967.09;;;17.17;67.65
57668;BME280;43499;52.366;12.912;2023-07-13T01:42:41;100976.72;;;17.15;68.20
57668;BME280;43499;52.366;12.912;2023-07-13T01:43:42;100962.00;;;17.05;68.68
57668;BME280;43499;52.366;12.912;2023-07-13T01:44:43;100968.06;;;17.02;68.08
57668;BME280;43499;52.366;12.912;2023-07-13T01:45:45;100973.44;;;17.04;68.88
57668;BME280;43499;52.366;12.912;2023-07-13T01:46:46;100971.69;;;17.04;68.85
57668;BME280;43499;52.366;12.912;2023-07-13T01:47:47;100949.63;;;16.90;69.35
57668;BME280;43499;52.366;12.912;2023-07-13T01:48:48;100962.38;;;16.96;69.17
57668;BME280;43499;52.366;12.912;2023-07-13T01:49:49;100968.63;;;16.96;69.05
57668;BME280;43499;52.366;12.912;2023-07-13T01:50:52;100955.34;;;16.96;68.70
57668;BME280;43499;52.366;12.912;2023-07-13T01:51:53;100965.28;;;17.01;68.65
57668;BME280;43499;52.366;12.912;2023-07-13T01:52:54;100951.75;;;16.96;68.42
57668;BME280;43499;52.366;12.912;2023-07-13T01:53:55;100957.72;;;17.07;68.24
57668;BME280;43499;52.366;12.912;2023-07-13T01:54:57;100952.56;;;17.10;68.18
57668;BME280;43499;52.366;12.912;2023-07-13T01:55:58;100959.44;;;17.06;67.85
57668;BME280;43499;52.366;12.912;2023-07-13T01:56:59;100958.69;;;17.09;68.25
57668;BME280;43499;52.366;12.912;2023-07-13T01:58:01;100955.69;;;17.03;68.02
57668;BME280;43499;52.366;12.912;2023-07-13T01:59:03;100946.97;;;16.90;68.42
57668;BME280;43499;52.366;12.912;2023-07-13T02:00:06;100941.47;;;16.87;68.69
57668;BME280;43499;52.366;12.912;2023-07-13T02:01:16;100963.19;;;16.95;68.34
57668;BME280;43499;52.366;12.912;2023-07-13T02:02:17;100954.41;;;16.96;68.63
57668;BME280;43499;52.366;12.912;2023-07-13T02:03:18;100955.56;;;16.86;68.56
57668;BME280;43499;52.366;12.912;2023-07-13T02:04:20;100921.53;;;16.64;68.95
57668;BME280;43499;52.366;12.912;2023-07-13T02:05:21;100959.63;;;16.79;68.62
57668;BME280;43499;52.366;12.912;2023-07-13T02:06:22;100951.66;;;16.79;69.15
57668;BME280;43499;52.366;12.912;2023-07-13T02:07:23;100940.94;;;16.78;68.73
57668;BME280;43499;52.366;12.912;2023-07-13T02:08:26;100950.53;;;16.76;68.66
57668;BME280;43499;52.366;12.912;2023-07-13T02:09:27;100962.50;;;16.69;69.62
57668;BME280;43499;52.366;12.912;2023-07-13T02:10:28;100954.81;;;16.59;69.66
57668;BME280;43499;52.366;12.912;2023-07-13T02:11:29;100953.72;;;16.55;69.66
57668;BME280;43499;52.366;12.912;2023-07-13T02:12:35;100946.78;;;16.42;69.70
57668;BME280;43499;52.366;12.912;2023-07-13T02:13:36;100954.19;;;16.48;69.96
57668;BME280;43499;52.366;12.912;2023-07-13T02:14:38;100952.84;;;16.55;69.38
57668;BME280;43499;52.366;12.912;2023-07-13T02:15:39;100941.00;;;16.49;69.97
57668;BME280;43499;52.366;12.912;2023-07-13T02:16:41;100954.81;;;16.59;69.54
57668;BME280;43499;52.366;12.912;2023-07-13T02:17:42;100963.06;;;16.63;69.69
57668;BME280;43499;52.366;12.912;2023-07-13T02:18:43;100962.63;;;16.56;69.40
57668;BME280;43499;52.366;12.912;2023-07-13T02:19:44;100962.72;;;16.57;69.22
57668;BME280;43499;52.366;12.912;2023-07-13T02:20:46;100970.13;;;16.63;69.20
57668;BME280;43499;52.366;12.912;2023-07-13T02:21:47;100950.19;;;16.55;69.51
57668;BME280;43499;52.366;12.912;2023-07-13T02:22:49;100959.50;;;16.63;69.16
57668;BME280;43499;52.366;12.912;2023-07-13T02:23:50;100962.34;;;16.66;69.20
57668;BME280;43499;52.366;12.912;2023-07-13T02:24:51;100952.38;;;16.62;69.35
57668;BME280;43499;52.366;12.912;2023-07-13T02:25:57;100967.94;;;16.71;69.34
57668;BME280;43499;52.366;12.912;2023-07-13T02:26:58;100957.47;;;16.59;69.35
57668;BME280;43499;52.366;12.912;2023-07-13T02:27:59;100972.84;;;16.64;69.16
57668;BME280;43499;52.366;12.912;2023-07-13T02:29:00;100964.06;;;16.65;69.42
57668;BME280;43499;52.366;12.912;2023-07-13T02:30:02;100944.28;;;16.45;69.25
57668;BME280;43499;52.366;12.912;2023-07-13T02:31:06;100948.78;;;16.46;69.98
57668;BME280;43499;52.366;12.912;2023-07-13T02:32:07;100960.41;;;16.48;70.04
57668;BME280;43499;52.366;12.912;2023-07-13T02:33:09;100954.28;;;16.49;70.09
57668;BME280;43499;52.366;12.912;2023-07-13T02:34:10;100957.13;;;16.53;70.01
57668;BME280;43499;52.366;12.912;2023-07-13T02:35:11;100952.09;;;16.57;69.76
57668;BME280;43499;52.366;12.912;2023-07-13T02:36:13;100943.66;;;16.49;69.83
57668;BME280;43499;52.366;12.912;2023-07-13T02:37:19;100930.94;;;16.44;70.07
57668;BME280;43499;52.366;12.912;2023-07-13T02:38:20;100923.25;;;16.48;69.54
57668;BME280;43499;52.366;12.912;2023-07-13T02:39:21;100925.56;;;16.42;70.03
57668;BME280;43499;52.366;12.912;2023-07-13T02:40:22;100935.63;;;16.48;70.02
57668;BME280;43499;52.366;12.912;2023-07-13T02:41:24;100950.06;;;16.53;69.85
57668;BME280;43499;52.366;12.912;2023-07-13T02:42:25;100941.81;;;16.48;70.13
57668;BME280;43499;52.366;12.912;2023-07-13T02:43:26;100946.31;;;16.49;70.13
57668;BME280;43499;52.366;12.912;2023-07-13T02:44:27;100943.59;;;16.48;69.90
57668;BME280;43499;52.366;12.912;2023-07-13T02:45:28;100960.31;;;16.47;70.21
57668;BME280;43499;52.366;12.912;2023-07-13T02:46:30;100961.59;;;16.39;70.34
57668;BME280;43499;52.366;12.912;2023-07-13T02:47:32;100958.63;;;16.34;70.86
57668;BME280;43499;52.366;12.912;2023-07-13T02:48:34;100937.59;;;16.22;70.97
57668;BME280;43499;52.366;12.912;2023-07-13T02:49:35;100955.81;;;16.31;71.33
57668;BME280;43499;52.366;12.912;2023-07-13T02:50:36;100937.38;;;16.19;71.25
57668;BME280;43499;52.366;12.912;2023-07-13T02:51:39;100940.31;;;16.24;71.09
57668;BME280;43499;52.366;12.912;2023-07-13T02:52:40;100942.72;;;16.34;70.48
57668;BME280;43499;52.366;12.912;2023-07-13T02:53:41;100950.88;;;16.37;70.26
57668;BME280;43499;52.366;12.912;2023-07-13T02:54:42;100957.00;;;16.36;70.32
57668;BME280;43499;52.366;12.912;2023-07-13T02:55:43;100950.50;;;16.31;70.20
57668;BME280;43499;52.366;12.912;2023-07-13T02:56:48;100965.16;;;16.39;70.30
57668;BME280;43499;52.366;12.912;2023-07-13T02:57:50;100969.44;;;16.37;70.26
57668;BME280;43499;52.366;12.912;2023-07-13T02:58:51;100965.22;;;16.41;69.90
57668;BME280;43499;52.366;12.912;2023-07-13T02:59:52;100960.59;;;16.37;69.37
57668;BME280;43499;52.366;12.912;2023-07-13T03:00:55;100977.59;;;16.40;69.54
57668;BME280;43499;52.366;12.912;2023-07-13T03:01:56;100962.75;;;16.29;69.75
57668;BME280;43499;52.366;12.912;2023-07-13T03:02:57;100972.28;;;16.25;69.96
57668;BME280;43499;52.366;12.912;2023-07-13T03:04:01;100983.75;;;16.11;70.32
57668;BME280;43499;52.366;12.912;2023-07-13T03:05:02;100977.72;;;16.13;70.21
57668;BME280;43499;52.366;12.912;2023-07-13T03:06:04;100988.44;;;16.15;70.34
57668;BME280;43499;52.366;12.912;2023-07-13T03:07:12;100974.25;;;16.14;70.43
57668;BME280;43499;52.366;12.912;2023-07-13T03:08:14;100993.56;;;16.27;69.89
57668;BME280;43499;52.366;12.912;2023-07-13T03:09:17;100962.63;;;16.12;70.13
57668;BME280;43499;52.366;12.912;2023-07-13T03:10:23;100987.16;;;16.23;70.03
57668;BME280;43499;52.366;12.912;2023-07-13T03:11:26;100987.38;;;16.26;69.65
57668;BME280;43499;52.366;12.912;2023-07-13T03:12:35;100996.50;;;16.31;69.65
57668;BME280;43499;52.366;12.912;2023-07-13T03:13:40;100972.44;;;16.28;69.84
57668;BME280;43499;52.366;12.912;2023-07-13T03:14:41;100986.56;;;16.42;69.23
57668;BME280;43499;52.366;12.912;2023-07-13T03:15:43;100989.84;;;16.38;69.52
57668;BME280;43499;52.366;12.912;2023-07-13T03:16:44;100991.16;;;16.45;68.95
57668;BME280;43499;52.366;12.912;2023-07-13T03:17:46;100989.72;;;16.50;68.94
57668;BME280;43499;52.366;12.912;2023-07-13T03:18:48;100968.72;;;16.40;68.60
57668;BME280;43499;52.366;12.912;2023-07-13T03:19:50;100985.66;;;16.57;68.92
57668;BME280;43499;52.366;12.912;2023-07-13T03:20:53;100994.81;;;16.62;68.33
57668;BME280;43499;52.366;12.912;2023-07-13T03:21:54;100976.13;;;16.45;68.90
57668;BME280;43499;52.366;12.912;2023-07-13T03:22:56;101000.06;;;16.60;69.29
57668;BME280;43499;52.366;12.912;2023-07-13T03:23:57;100995.72;;;16.62;68.66
57668;BME280;43499;52.366;12.912;2023-07-13T03:24:58;101002.78;;;16.62;68.63
57668;BME280;43499;52.366;12.912;2023-07-13T03:26:10;100992.91;;;16.59;69.33
57668;BME280;43499;52.366;12.912;2023-07-13T03:27:15;100982.84;;;16.54;69.16
57668;BME280;43499;52.366;12.912;2023-07-13T03:28:18;100988.31;;;16.57;68.75
57668;BME280;43499;52.366;12.912;2023-07-13T03:29:19;100992.38;;;16.65;68.85
57668;BME280;43499;52.366;12.912;2023-07-13T03:30:20;100974.22;;;16.58;68.74
57668;BME280;43499;52.366;12.912;2023-07-13T03:31:25;100965.44;;;16.59;68.89
57668;BME280;43499;52.366;12.912;2023-07-13T03:32:27;101003.91;;;16.80;68.62
57668;BME280;43499;52.366;12.912;2023-07-13T03:33:28;100993.66;;;16.87;68.58
57668;BME280;43499;52.366;12.912;2023-07-13T03:34:30;101005.38;;;16.90;68.91
57668;BME280;43499;52.366;12.912;2023-07-13T03:35:31;100991.91;;;16.87;69.00
57668;BME280;43499;52.366;12.912;2023-07-13T03:36:33;101012.84;;;16.96;68.86
57668;BME280;43499;52.366;12.912;2023-07-13T03:37:38;100993.41;;;16.97;68.99
57668;BME280;43499;52.366;12.912;2023-07-13T03:38:47;101009.34;;;17.12;68.13
57668;BME280;43499;52.366;12.912;2023-07-13T03:39:49;100997.00;;;17.13;67.91
57668;BME280;43499;52.366;12.912;2023-07-13T03:40:52;100994.59;;;17.17;67.98
57668;BME280;43499;52.366;12.912;2023-07-13T03:41:54;101004.47;;;17.20;68.04
57668;BME280;43499;52.366;12.912;2023-07-13T03:42:55;100986.00;;;17.06;67.95
57668;BME280;43499;52.366;12.912;2023-07-13T03:43:57;100989.59;;;17.07;68.07
57668;BME280;43499;52.366;12.912;2023-07-13T03:44:59;101001.19;;;17.09;68.48
57668;BME280;43499;52.366;12.912;2023-07-13T03:46:00;100991.31;;;17.06;68.49
57668;BME280;43499;52.366;12.912;2023-07-13T03:47:02;101004.13;;;17.14;68.41
57668;BME280;43499;52.366;12.912;2023-07-13T03:48:04;101006.13;;;17.18;68.29
57668;BME280;43499;52.366;12.912;2023-07-13T03:49:06;101002.72;;;17.20;68.76
57668;BME280;43499;52.366;12.912;2023-07-13T03:50:08;101004.97;;;17.13;68.06
57668;BME280;43499;52.366;12.912;2023-07-13T03:51:09;100992.59;;;16.98;68.90
57668;BME280;43499;52.366;12.912;2023-07-13T03:52:10;101007.50;;;17.11;68.66
57668;BME280;43499;52.366;12.912;2023-07-13T03:53:11;101000.75;;;17.01;68.26
57668;BME280;43499;52.366;12.912;2023-07-13T03:54:13;101004.59;;;17.06;68.78
57668;BME280;43499;52.366;12.912;2023-07-13T03:55:14;101009.25;;;17.10;68.97
57668;BME280;43499;52.366;12.912;2023-07-13T03:56:17;100991.41;;;17.08;68.88
57668;BME280;43499;52.366;12.912;2023-07-13T03:57:19;100987.28;;;17.13;68.86
57668;BME280;43499;52.366;12.912;2023-07-13T03:59:36;101014.78;;;17.45;68.06
57668;BME280;43499;52.366;12.912;2023-07-13T04:00:37;100999.66;;;17.44;68.15
57668;BME280;43499;52.366;12.912;2023-07-13T04:01:39;100997.56;;;17.38;68.28
57668;BME280;43499;52.366;12.912;2023-07-13T04:02:40;100992.53;;;17.43;68.54
57668;BME280;43499;52.366;12.912;2023-07-13T04:03:42;101001.47;;;17.60;68.22
57668;BME280;43499;52.366;12.912;2023-07-13T04:04:43;101004.81;;;17.72;67.87
57668;BME280;43499;52.366;12.912;2023-07-13T04:05:44;100988.22;;;17.77;67.56
57668;BME280;43499;52.366;12.912;2023-07-13T04:06:47;101004.13;;;17.92;67.27
57668;BME280;43499;52.366;12.912;2023-07-13T04:07:48;101007.25;;;17.99;67.16
57668;BME280;43499;52.366;12.912;2023-07-13T04:08:57;101007.91;;;18.12;66.59
57668;BME280;43499;52.366;12.912;2023-07-13T04:09:59;101009.69;;;18.11;66.72
57668;BME280;43499;52.366;12.912;2023-07-13T04:11:01;100996.38;;;18.11;66.18
57668;BME280;43499;52.366;12.912;2023-07-13T04:12:03;101011.19;;;18.23;66.04
57668;BME280;43499;52.366;12.912;2023-07-13T04:13:05;100990.38;;;18.32;65.63
57668;BME280;43499;52.366;12.912;2023-07-13T04:14:06;101011.41;;;18.44;65.73
57668;BME280;43499;52.366;12.912;2023-07-13T04:15:08;101020.81;;;18.54;65.61
57668;BME280;43499;52.366;12.912;2023-07-13T04:16:09;100990.88;;;18.41;65.63
57668;BME280;43499;52.366;12.912;2023-07-13T04:17:10;100998.00;;;18.59;64.87
57668;BME280;43499;52.366;12.912;2023-07-13T04:18:12;101006.97;;;18.77;64.32
57668;BME280;43499;52.366;12.912;2023-07-13T04:19:13;101029.75;;;18.89;64.49
57668;BME280;43499;52.366;12.912;2023-07-13T04:20:14;101021.34;;;18.81;64.37
57668;BME280;43499;52.366;12.912;2023-07-13T04:21:16;101025.13;;;18.68;65.05
57668;BME280;43499;52.366;12.912;2023-07-13T04:22:17;100996.34;;;18.61;64.66
57668;BME280;43499;52.366;12.912;2023-07-13T04:23:19;101024.50;;;18.90;63.92
57668;BME280;43499;52.366;12.912;2023-07-13T04:24:20;101016.19;;;18.84;64.38
57668;BME280;43499;52.366;12.912;2023-07-13T04:25:21;101022.34;;;19.00;63.86
57668;BME280;43499;52.366;12.912;2023-07-13T04:26:23;101007.69;;;18.91;63.40
57668;BME280;43499;52.366;12.912;2023-07-13T04:27:24;101021.50;;;19.01;63.58
57668;BME280;43499;52.366;12.912;2023-07-13T04:28:25;101005.13;;;18.76;63.87
57668;BME280;43499;52.366;12.912;2023-07-13T04:29:27;101003.84;;;18.68;64.08
57668;BME280;43499;52.366;12.912;2023-07-13T04:30:28;101018.63;;;18.63;64.20
57668;BME280;43499;52.366;12.912;2023-07-13T04:31:30;101026.75;;;18.83;64.33
57668;BME280;43499;52.366;12.912;2023-07-13T04:32:31;101024.31;;;18.87;64.33
57668;BME280;43499;52.366;12.912;2023-07-13T04:33:32;101038.09;;;18.95;64.69
57668;BME280;43499;52.366;12.912;2023-07-13T04:34:34;101036.75;;;19.03;64.58
57668;BME280;43499;52.366;12.912;2023-07-13T04:35:35;101037.84;;;19.25;63.64
57668;BME280;43499;52.366;12.912;2023-07-13T04:36:37;101024.06;;;19.34;63.22
57668;BME280;43499;52.366;12.912;2023-07-13T04:37:38;101023.31;;;19.54;62.24
57668;BME280;43499;52.366;12.912;2023-07-13T04:38:39;101012.50;;;19.51;61.35
57668;BME280;43499;52.366;12.912;2023-07-13T04:39:40;101042.03;;;19.74;61.75
57668;BME280;43499;52.366;12.912;2023-07-13T04:40:45;101041.97;;;19.91;61.33
57668;BME280;43499;52.366;12.912;2023-07-13T04:41:46;101020.50;;;19.87;60.97
57668;BME280;43499;52.366;12.912;2023-07-13T04:42:47;101038.06;;;20.02;60.70
57668;BME280;43499;52.366;12.912;2023-07-13T04:43:48;101036.53;;;20.07;60.98
57668;BME280;43499;52.366;12.912;2023-07-13T04:44:50;101025.22;;;20.13;61.07
57668;BME280;43499;52.366;12.912;2023-07-13T04:45:52;101033.47;;;20.37;60.94
57668;BME280;43499;52.366;12.912;2023-07-13T04:46:53;101024.13;;;20.47;60.37
57668;BME280;43499;52.366;12.912;2023-07-13T04:47:54;101016.16;;;20.48;59.99
57668;BME280;43499;52.366;12.912;2023-07-13T04:48:56;101032.19;;;20.48;60.10
57668;BME280;43499;52.366;12.912;2023-07-13T04:49:57;101033.97;;;20.48;60.28
57668;BME280;43499;52.366;12.912;2023-07-13T04:50:58;101026.44;;;20.39;59.62
57668;BME280;43499;52.366;12.912;2023-07-13T04:51:59;101024.06;;;20.45;59.89
57668;BME280;43499;52.366;12.912;2023-07-13T04:53:01;101026.84;;;20.48;59.61
57668;BME280;43499;52.366;12.912;2023-07-13T04:54:02;101028.00;;;20.54;60.17
57668;BME280;43499;52.366;12.912;2023-07-13T04:55:03;101031.84;;;20.60;59.80
57668;BME280;43499;52.366;12.912;2023-07-13T04:56:04;101037.56;;;20.68;60.08
57668;BME280;43499;52.366;12.912;2023-07-13T04:57:05;101042.34;;;20.75;59.70
57668;BME280;43499;52.366;12.912;2023-07-13T04:58:07;101038.25;;;20.84;59.84
57668;BME280;43499;52.366;12.912;2023-07-13T04:59:08;101035.88;;;20.90;58.84
57668;BME280;43499;52.366;12.912;2023-07-13T05:00:09;101033.19;;;20.90;58.58
57668;BME280;43499;52.366;12.912;2023-07-13T05:01:11;101043.09;;;20.92;59.03
57668;BME280;43499;52.366;12.912;2023-07-13T05:02:14;101033.72;;;21.02;58.77
57668;BME280;43499;52.366;12.912;2023-07-13T05:03:15;101035.88;;;21.11;58.79
57668;BME280;43499;52.366;12.912;2023-07-13T05:04:17;101026.63;;;21.24;58.54
57668;BME280;43499;52.366;12.912;2023-07-13T05:05:18;101021.81;;;21.36;57.92
57668;BME280;43499;52.366;12.912;2023-07-13T05:06:20;101027.00;;;21.33;58.24
57668;BME280;43499;52.366;12.912;2023-07-13T05:07:22;101036.28;;;21.20;57.76
57668;BME280;43499;52.366;12.912;2023-07-13T05:08:23;101023.25;;;21.28;57.87
57668;BME280;43499;52.366;12.912;2023-07-13T05:09:24;101037.69;;;21.54;57.22
57668;BME280;43499;52.366;12.912;2023-07-13T05:10:25;101038.09;;;21.64;57.30
57668;BME280;43499;52.366;12.912;2023-07-13T05:11:26;101023.22;;;21.70;56.99
57668;BME280;43499;52.366;12.912;2023-07-13T05:12:27;101034.72;;;21.91;56.38
57668;BME280;43499;52.366;12.912;2023-07-13T05:13:29;101031.19;;;21.92;56.56
57668;BME280;43499;52.366;12.912;2023-07-13T05:14:30;101004.72;;;21.77;56.21
57668;BME280;43499;52.366;12.912;2023-07-13T05:15:33;101028.75;;;21.98;56.67
57668;BME280;43499;52.366;12.912;2023-07-13T05:16:34;101029.91;;;22.04;56.63
57668;BME280;43499;52.366;12.912;2023-07-13T05:17:36;101020.00;;;22.02;56.76
57668;BME280;43499;52.366;12.912;2023-07-13T05:18:37;101032.09;;;22.15;56.67
57668;BME280;43499;52.366;12.912;2023-07-13T05:19:39;101027.28;;;22.06;56.21
57668;BME280;43499;52.366;12.912;2023-07-13T05:20:40;101021.34;;;22.13;55.77
57668;BME280;43499;52.366;12.912;2023-07-13T05:21:41;101018.50;;;22.33;56.16
57668;BME280;43499;52.366;12.912;2023-07-13T05:22:43;101027.16;;;22.48;55.58